sensor_id;sensor_type;location;lat;lon;timestamp;pressure;altitude;pressure_sealevel;temperature;humidity
80149;BME280;69473;42.426;26.644;2023-04-25T00:02:12;98371.97;;;12.24;58.09
80149;BME280;69473;42.426;26.644;2023-04-25T00:04:38;98373.69;;;12.24;58.20
80149;BME280;69473;42.426;26.644;2023-04-25T00:07:04;98365.03;;;12.23;58.43
80149;BME280;69473;42.426;26.644;2023-04-25T00:09:30;98349.91;;;11.99;58.66
80149;BME280;69473;42.426;26.644;2023-04-25T00:11:55;98357.47;;;12.11;58.71
80149;BME280;69473;42.426;26.644;2023-04-25T00:14:21;98358.25;;;12.16;58.37
80149;BME280;69473;42.426;26.644;2023-04-25T00:16:48;98358.31;;;12.13;58.17
80149;BME280;69473;42.426;26.644;2023-04-25T00:19:14;98356.91;;;11.97;59.64
80149;BME280;69473;42.426;26.644;2023-04-25T00:21:39;98349.88;;;12.02;60.04
80149;BME280;69473;42.426;26.644;2023-04-25T00:24:08;98350.03;;;11.93;60.25
80149;BME280;69473;42.426;26.644;2023-04-25T00:26:34;98346.56;;;11.94;60.82
80149;BME280;69473;42.426;26.644;2023-04-25T00:29:01;98346.69;;;11.88;60.80
80149;BME280;69473;42.426;26.644;2023-04-25T00:31:27;98350.16;;;11.87;61.11
80149;BME280;69473;42.426;26.644;2023-04-25T00:33:54;98345.00;;;11.85;60.78
80149;BME280;69473;42.426;26.644;2023-04-25T00:36:20;98336.44;;;11.78;60.65
80149;BME280;69473;42.426;26.644;2023-04-25T00:38:45;98336.59;;;11.69;60.38
80149;BME280;69473;42.426;26.644;2023-04-25T00:41:14;98333.28;;;11.61;61.16
80149;BME280;69473;42.426;26.644;2023-04-25T00:43:41;98330.78;;;11.56;61.99
80149;BME280;69473;42.426;26.644;2023-04-25T00:46:07;98331.63;;;11.57;61.33
80149;BME280;69473;42.426;26.644;2023-04-25T00:48:32;98335.06;;;11.59;61.64
80149;BME280;69473;42.426;26.644;2023-04-25T00:50:59;98331.78;;;11.48;61.72
80149;BME280;69473;42.426;26.644;2023-04-25T00:53:27;98324.91;;;11.47;61.88
80149;BME280;69473;42.426;26.644;2023-04-25T00:55:54;98316.06;;;11.57;61.30
80149;BME280;69473;42.426;26.644;2023-04-25T00:58:21;98325.63;;;11.53;61.01
80149;BME280;69473;42.426;26.644;2023-04-25T01:00:49;98320.63;;;11.43;61.40
80149;BME280;69473;42.426;26.644;2023-04-25T01:03:16;98309.59;;;11.31;62.25
80149;BME280;69473;42.426;26.644;2023-04-25T01:05:43;98301.06;;;11.23;62.06
80149;BME280;69473;42.426;26.644;2023-04-25T01:08:09;98311.34;;;11.29;62.77
80149;BME280;69473;42.426;26.644;2023-04-25T01:10:35;98305.34;;;11.26;62.67
80149;BME280;69473;42.426;26.644;2023-04-25T01:13:01;98295.31;;;11.06;62.59
80149;BME280;69473;42.426;26.644;2023-04-25T01:15:27;98294.47;;;11.04;62.42
80149;BME280;69473;42.426;26.644;2023-04-25T01:17:53;98287.44;;;11.12;61.83
80149;BME280;69473;42.426;26.644;2023-04-25T01:20:24;98289.25;;;11.07;62.26
80149;BME280;69473;42.426;26.644;2023-04-25T01:22:52;98288.41;;;11.05;62.72
80149;BME280;69473;42.426;26.644;2023-04-25T01:25:19;98284.22;;;10.96;62.92
80149;BME280;69473;42.426;26.644;2023-04-25T01:27:46;98281.63;;;10.96;63.35
80149;BME280;69473;42.426;26.644;2023-04-25T01:30:12;98279.00;;;10.98;63.14
80149;BME280;69473;42.426;26.644;2023-04-25T01:32:40;98277.38;;;10.94;62.59
80149;BME280;69473;42.426;26.644;2023-04-25T01:35:09;98274.97;;;10.80;63.00
80149;BME280;69473;42.426;26.644;2023-04-25T01:37:40;98269.91;;;10.72;64.13
80149;BME280;69473;42.426;26.644;2023-04-25T01:40:07;98267.13;;;10.84;63.06
80149;BME280;69473;42.426;26.644;2023-04-25T01:42:36;98256.81;;;10.81;63.69
80149;BME280;69473;42.426;26.644;2023-04-25T01:45:03;98261.91;;;10.88;63.23
80149;BME280;69473;42.426;26.644;2023-04-25T01:47:28;98261.03;;;10.87;63.23
80149;BME280;69473;42.426;26.644;2023-04-25T01:49:54;98250.66;;;10.87;62.26
80149;BME280;69473;42.426;26.644;2023-04-25T01:52:20;98249.84;;;10.83;62.74
80149;BME280;69473;42.426;26.644;2023-04-25T01:54:47;98249.91;;;10.80;63.04
80149;BME280;69473;42.426;26.644;2023-04-25T01:57:13;98243.91;;;10.78;63.27
80149;BME280;69473;42.426;26.644;2023-04-25T01:59:41;98244.84;;;10.71;62.60
80149;BME280;69473;42.426;26.644;2023-04-25T02:02:06;98230.06;;;10.79;62.68
80149;BME280;69473;42.426;26.644;2023-04-25T02:04:32;98229.13;;;10.83;62.90
80149;BME280;69473;42.426;26.644;2023-04-25T02:06:58;98220.53;;;10.81;62.10
80149;BME280;69473;42.426;26.644;2023-04-25T02:09:24;98225.91;;;10.69;63.55
80149;BME280;69473;42.426;26.644;2023-04-25T02:11:50;98229.31;;;10.71;63.36
80149;BME280;69473;42.426;26.644;2023-04-25T02:14:15;98224.00;;;10.80;63.57
80149;BME280;69473;42.426;26.644;2023-04-25T02:16:41;98217.06;;;10.82;62.52
80149;BME280;69473;42.426;26.644;2023-04-25T02:19:09;98213.53;;;10.86;63.56
80149;BME280;69473;42.426;26.644;2023-04-25T02:21:35;98214.44;;;10.84;62.62
80149;BME280;69473;42.426;26.644;2023-04-25T02:24:01;98210.38;;;10.69;62.78
80149;BME280;69473;42.426;26.644;2023-04-25T02:26:27;98223.50;;;10.55;64.05
80149;BME280;69473;42.426;26.644;2023-04-25T02:28:52;98222.88;;;10.39;64.68
80149;BME280;69473;42.426;26.644;2023-04-25T02:31:18;98238.50;;;10.33;64.23
80149;BME280;69473;42.426;26.644;2023-04-25T02:33:44;98236.75;;;10.35;64.02
80149;BME280;69473;42.426;26.644;2023-04-25T02:36:10;98238.44;;;10.39;64.66
80149;BME280;69473;42.426;26.644;2023-04-25T02:38:35;98220.38;;;10.33;63.98
80149;BME280;69473;42.426;26.644;2023-04-25T02:41:01;98215.28;;;10.29;65.21
80149;BME280;69473;42.426;26.644;2023-04-25T02:43:26;98230.69;;;10.36;64.41
80149;BME280;69473;42.426;26.644;2023-04-25T02:45:52;98228.06;;;10.39;63.75
80149;BME280;69473;42.426;26.644;2023-04-25T02:48:17;98221.06;;;10.48;63.26
80149;BME280;69473;42.426;26.644;2023-04-25T02:50:43;98220.13;;;10.53;63.91
80149;BME280;69473;42.426;26.644;2023-04-25T02:53:09;98236.59;;;10.48;63.39
80149;BME280;69473;42.426;26.644;2023-04-25T02:55:34;98225.72;;;10.20;65.06
80149;BME280;69473;42.426;26.644;2023-04-25T02:58:00;98229.97;;;10.25;65.34
80149;BME280;69473;42.426;26.644;2023-04-25T03:00:25;98233.25;;;10.39;63.36
80149;BME280;69473;42.426;26.644;2023-04-25T03:02:51;98237.66;;;10.34;63.88
80149;BME280;69473;42.426;26.644;2023-04-25T03:05:17;98236.00;;;10.24;64.45
80149;BME280;69473;42.426;26.644;2023-04-25T03:07:43;98237.75;;;10.27;64.99
80149;BME280;69473;42.426;26.644;2023-04-25T03:10:10;98235.28;;;10.16;65.36
80149;BME280;69473;42.426;26.644;2023-04-25T03:12:36;98247.38;;;10.14;65.48
80149;BME280;69473;42.426;26.644;2023-04-25T03:15:02;98238.75;;;10.12;65.75
80149;BME280;69473;42.426;26.644;2023-04-25T03:17:29;98242.94;;;10.24;65.11
80149;BME280;69473;42.426;26.644;2023-04-25T03:19:55;98255.00;;;10.26;64.13
80149;BME280;69473;42.426;26.644;2023-04-25T03:22:21;98245.50;;;10.28;63.44
80149;BME280;69473;42.426;26.644;2023-04-25T03:24:47;98253.88;;;10.46;63.88
80149;BME280;69473;42.426;26.644;2023-04-25T03:27:13;98243.50;;;10.46;63.33
80149;BME280;69473;42.426;26.644;2023-04-25T03:29:38;98243.38;;;10.55;62.88
80149;BME280;69473;42.426;26.644;2023-04-25T03:32:05;98247.63;;;10.60;63.08
80149;BME280;69473;42.426;26.644;2023-04-25T03:34:31;98231.22;;;10.60;62.62
80149;BME280;69473;42.426;26.644;2023-04-25T03:36:57;98246.53;;;10.75;62.71
80149;BME280;69473;42.426;26.644;2023-04-25T03:39:22;98243.06;;;10.76;62.21
80149;BME280;69473;42.426;26.644;2023-04-25T03:41:48;98244.72;;;10.80;62.00
80149;BME280;69473;42.426;26.644;2023-04-25T03:44:13;98241.28;;;10.81;62.77
80149;BME280;69473;42.426;26.644;2023-04-25T03:46:39;98240.22;;;10.92;62.65
80149;BME280;69473;42.426;26.644;2023-04-25T03:49:04;98230.56;;;11.03;61.14
80149;BME280;69473;42.426;26.644;2023-04-25T03:51:30;98234.69;;;11.13;61.78
80149;BME280;69473;42.426;26.644;2023-04-25T03:53:56;98242.16;;;11.31;60.99
80149;BME280;69473;42.426;26.644;2023-04-25T03:56:21;98240.09;;;11.49;60.36
80149;BME280;69473;42.426;26.644;2023-04-25T03:58:47;98243.97;;;11.73;60.40
80149;BME280;69473;42.426;26.644;2023-04-25T04:01:13;98233.94;;;12.01;58.95
80149;BME280;69473;42.426;26.644;2023-04-25T04:03:38;98239.75;;;12.12;59.05
80149;BME280;69473;42.426;26.644;2023-04-25T04:06:05;98238.19;;;12.44;58.19
80149;BME280;69473;42.426;26.644;2023-04-25T04:08:31;98237.72;;;12.65;56.88
80149;BME280;69473;42.426;26.644;2023-04-25T04:10:57;98237.75;;;13.00;56.37
80149;BME280;69473;42.426;26.644;2023-04-25T04:13:26;98228.56;;;13.21;54.38
80149;BME280;69473;42.426;26.644;2023-04-25T04:15:52;98229.09;;;13.35;55.24
80149;BME280;69473;42.426;26.644;2023-04-25T04:18:19;98225.94;;;13.21;55.65
80149;BME280;69473;42.426;26.644;2023-04-25T04:20:44;98240.25;;;13.04;55.38
80149;BME280;69473;42.426;26.644;2023-04-25T04:23:10;98246.31;;;12.67;56.69
80149;BME280;69473;42.426;26.644;2023-04-25T04:25:36;98245.56;;;12.23;58.57
80149;BME280;69473;42.426;26.644;2023-04-25T04:28:02;98236.84;;;12.28;58.75
80149;BME280;69473;42.426;26.644;2023-04-25T04:30:28;98240.25;;;12.30;57.79
80149;BME280;69473;42.426;26.644;2023-04-25T04:32:55;98244.06;;;12.13;59.01
80149;BME280;69473;42.426;26.644;2023-04-25T04:35:22;98240.31;;;12.27;58.69
80149;BME280;69473;42.426;26.644;2023-04-25T04:37:48;98240.88;;;11.99;59.67
80149;BME280;69473;42.426;26.644;2023-04-25T04:40:14;98231.91;;;12.15;59.73
80149;BME280;69473;42.426;26.644;2023-04-25T04:42:44;98236.91;;;12.24;59.53
80149;BME280;69473;42.426;26.644;2023-04-25T04:45:12;98237.50;;;12.37;59.17
80149;BME280;69473;42.426;26.644;2023-04-25T04:47:38;98232.25;;;12.39;59.52
80149;BME280;69473;42.426;26.644;2023-04-25T04:50:09;98234.56;;;12.51;58.85
80149;BME280;69473;42.426;26.644;2023-04-25T04:52:36;98228.25;;;12.63;58.83
80149;BME280;69473;42.426;26.644;2023-04-25T04:55:03;98224.38;;;12.81;57.89
80149;BME280;69473;42.426;26.644;2023-04-25T04:57:29;98211.78;;;12.98;59.36
80149;BME280;69473;42.426;26.644;2023-04-25T04:59:55;98215.63;;;13.17;57.22
80149;BME280;69473;42.426;26.644;2023-04-25T05:02:20;98213.72;;;13.26;56.20
80149;BME280;69473;42.426;26.644;2023-04-25T05:04:46;98215.00;;;13.42;57.21
80149;BME280;69473;42.426;26.644;2023-04-25T05:07:12;98223.56;;;14.09;56.31
80149;BME280;69473;42.426;26.644;2023-04-25T05:09:38;98215.63;;;14.42;54.31
80149;BME280;69473;42.426;26.644;2023-04-25T05:12:04;98211.03;;;14.52;54.80
80149;BME280;69473;42.426;26.644;2023-04-25T05:14:31;98206.72;;;14.49;54.33
80149;BME280;69473;42.426;26.644;2023-04-25T05:16:56;98204.84;;;14.54;53.88
80149;BME280;69473;42.426;26.644;2023-04-25T05:19:22;98205.19;;;14.42;54.81
80149;BME280;69473;42.426;26.644;2023-04-25T05:21:48;98213.00;;;14.72;54.87
80149;BME280;69473;42.426;26.644;2023-04-25T05:24:14;98215.88;;;14.64;54.17
80149;BME280;69473;42.426;26.644;2023-04-25T05:26:39;98211.09;;;14.77;54.37
80149;BME280;69473;42.426;26.644;2023-04-25T05:29:05;98199.72;;;14.51;54.00
80149;BME280;69473;42.426;26.644;2023-04-25T05:31:31;98198.19;;;14.44;56.25
80149;BME280;69473;42.426;26.644;2023-04-25T05:33:57;98199.97;;;14.98;53.40
80149;BME280;69473;42.426;26.644;2023-04-25T05:36:23;98199.13;;;15.23;52.69
80149;BME280;69473;42.426;26.644;2023-04-25T05:38:48;98197.75;;;15.13;54.37
80149;BME280;69473;42.426;26.644;2023-04-25T05:41:14;98197.28;;;14.45;54.86
80149;BME280;69473;42.426;26.644;2023-04-25T05:43:40;98198.22;;;13.85;57.95
80149;BME280;69473;42.426;26.644;2023-04-25T05:46:11;98196.44;;;13.87;59.44
80149;BME280;69473;42.426;26.644;2023-04-25T05:48:37;98201.91;;;13.78;59.24
80149;BME280;69473;42.426;26.644;2023-04-25T05:51:03;98197.28;;;13.56;58.44
80149;BME280;69473;42.426;26.644;2023-04-25T05:53:28;98197.94;;;13.32;60.23
80149;BME280;69473;42.426;26.644;2023-04-25T05:55:54;98198.44;;;13.46;59.55
80149;BME280;69473;42.426;26.644;2023-04-25T05:58:19;98204.94;;;13.30;60.21
80149;BME280;69473;42.426;26.644;2023-04-25T06:00:45;98203.59;;;13.13;62.08
80149;BME280;69473;42.426;26.644;2023-04-25T06:03:11;98200.75;;;13.24;60.90
80149;BME280;69473;42.426;26.644;2023-04-25T06:05:41;98195.50;;;13.26;61.02
80149;BME280;69473;42.426;26.644;2023-04-25T06:08:07;98196.63;;;13.15;62.05
80149;BME280;69473;42.426;26.644;2023-04-25T06:10:32;98194.25;;;13.40;61.58
80149;BME280;69473;42.426;26.644;2023-04-25T06:12:58;98207.19;;;13.44;61.66
80149;BME280;69473;42.426;26.644;2023-04-25T06:15:23;98210.75;;;13.05;62.81
80149;BME280;69473;42.426;26.644;2023-04-25T06:17:49;98211.44;;;12.78;63.67
80149;BME280;69473;42.426;26.644;2023-04-25T06:20:14;98216.56;;;12.81;64.62
80149;BME280;69473;42.426;26.644;2023-04-25T06:22:40;98211.84;;;12.95;63.65
80149;BME280;69473;42.426;26.644;2023-04-25T06:25:05;98207.88;;;13.50;63.32
80149;BME280;69473;42.426;26.644;2023-04-25T06:27:33;98197.78;;;13.38;62.66
80149;BME280;69473;42.426;26.644;2023-04-25T06:29:58;98211.38;;;13.49;62.12
80149;BME280;69473;42.426;26.644;2023-04-25T06:32:24;98209.91;;;13.39;62.30
80149;BME280;69473;42.426;26.644;2023-04-25T06:34:51;98212.50;;;13.72;62.39
80149;BME280;69473;42.426;26.644;2023-04-25T06:37:16;98210.41;;;13.83;62.10
80149;BME280;69473;42.426;26.644;2023-04-25T06:39:42;98218.59;;;13.38;63.32
80149;BME280;69473;42.426;26.644;2023-04-25T06:42:07;98216.28;;;13.60;62.94
80149;BME280;69473;42.426;26.644;2023-04-25T06:44:33;98213.69;;;13.60;62.89
80149;BME280;69473;42.426;26.644;2023-04-25T06:46:59;98163.00;;;14.01;60.95
80149;BME280;69473;42.426;26.644;2023-04-25T06:49:24;98211.59;;;14.62;59.31
80149;BME280;69473;42.426;26.644;2023-04-25T06:51:50;98215.94;;;14.89;58.50
80149;BME280;69473;42.426;26.644;2023-04-25T06:54:15;98214.31;;;15.12;58.81
80149;BME280;69473;42.426;26.644;2023-04-25T06:56:41;98208.16;;;15.39;57.61
80149;BME280;69473;42.426;26.644;2023-04-25T06:59:06;98213.22;;;15.69;56.10
80149;BME280;69473;42.426;26.644;2023-04-25T07:01:32;98206.47;;;15.62;56.14
80149;BME280;69473;42.426;26.644;2023-04-25T07:03:58;98206.66;;;16.06;55.83
80149;BME280;69473;42.426;26.644;2023-04-25T07:06:23;98194.94;;;17.65;52.28
80149;BME280;69473;42.426;26.644;2023-04-25T07:08:51;98185.47;;;21.80;42.36
80149;BME280;69473;42.426;26.644;2023-04-25T07:11:16;98180.91;;;20.79;42.51
80149;BME280;69473;42.426;26.644;2023-04-25T07:13:42;98192.59;;;17.80;49.79
80149;BME280;69473;42.426;26.644;2023-04-25T07:16:07;98195.56;;;18.66;47.98
80149;BME280;69473;42.426;26.644;2023-04-25T07:18:33;98194.25;;;23.45;37.62
80149;BME280;69473;42.426;26.644;2023-04-25T07:20:58;98187.22;;;24.94;34.52
80149;BME280;69473;42.426;26.644;2023-04-25T07:23:24;98190.81;;;25.64;33.07
80149;BME280;69473;42.426;26.644;2023-04-25T07:25:49;98185.56;;;27.60;30.21
80149;BME280;69473;42.426;26.644;2023-04-25T07:28:15;98182.75;;;27.52;30.51
80149;BME280;69473;42.426;26.644;2023-04-25T07:30:40;98181.69;;;26.58;31.63
80149;BME280;69473;42.426;26.644;2023-04-25T07:33:06;98175.22;;;27.15;31.81
80149;BME280;69473;42.426;26.644;2023-04-25T07:35:31;98176.41;;;26.13;32.61
80149;BME280;69473;42.426;26.644;2023-04-25T07:37:57;98186.03;;;24.98;34.67
80149;BME280;69473;42.426;26.644;2023-04-25T07:40:24;98172.75;;;27.23;30.85
80149;BME280;69473;42.426;26.644;2023-04-25T07:42:49;98169.75;;;25.16;33.85
80149;BME280;69473;42.426;26.644;2023-04-25T07:45:15;98176.72;;;23.44;36.30
80149;BME280;69473;42.426;26.644;2023-04-25T07:47:41;98176.88;;;20.58;42.53
80149;BME280;69473;42.426;26.644;2023-04-25T07:50:07;98167.66;;;19.00;44.78
80149;BME280;69473;42.426;26.644;2023-04-25T07:52:32;98173.47;;;17.96;48.71
80149;BME280;69473;42.426;26.644;2023-04-25T07:54:58;98169.50;;;17.28;51.62
80149;BME280;69473;42.426;26.644;2023-04-25T07:57:24;98176.88;;;17.80;50.25
80149;BME280;69473;42.426;26.644;2023-04-25T07:59:49;98173.56;;;17.95;49.46
80149;BME280;69473;42.426;26.644;2023-04-25T08:02:15;98175.00;;;17.82;50.54
80149;BME280;69473;42.426;26.644;2023-04-25T08:04:40;98163.50;;;18.23;49.98
80149;BME280;69473;42.426;26.644;2023-04-25T08:07:06;98170.81;;;17.98;50.18
80149;BME280;69473;42.426;26.644;2023-04-25T08:09:31;98168.59;;;17.89;51.34
80149;BME280;69473;42.426;26.644;2023-04-25T08:12:01;98168.22;;;18.15;51.01
80149;BME280;69473;42.426;26.644;2023-04-25T08:14:27;98175.22;;;17.57;51.35
80149;BME280;69473;42.426;26.644;2023-04-25T08:16:54;98174.13;;;17.62;51.81
80149;BME280;69473;42.426;26.644;2023-04-25T08:19:19;98172.16;;;17.67;51.05
80149;BME280;69473;42.426;26.644;2023-04-25T08:21:45;98178.09;;;18.10;51.54
80149;BME280;69473;42.426;26.644;2023-04-25T08:24:10;98172.22;;;18.97;48.37
80149;BME280;69473;42.426;26.644;2023-04-25T08:26:36;98168.25;;;19.57;47.38
80149;BME280;69473;42.426;26.644;2023-04-25T08:29:02;98177.03;;;18.69;49.55
80149;BME280;69473;42.426;26.644;2023-04-25T08:31:28;98180.63;;;18.86;49.24
80149;BME280;69473;42.426;26.644;2023-04-25T08:33:53;98151.69;;;19.22;47.91
80149;BME280;69473;42.426;26.644;2023-04-25T08:36:19;98161.94;;;19.09;48.57
80149;BME280;69473;42.426;26.644;2023-04-25T08:38:44;98156.22;;;19.19;47.53
80149;BME280;69473;42.426;26.644;2023-04-25T08:41:11;98156.81;;;18.72;49.41
80149;BME280;69473;42.426;26.644;2023-04-25T08:43:37;98147.91;;;18.76;48.37
80149;BME280;69473;42.426;26.644;2023-04-25T08:46:03;98154.22;;;18.89;49.25
80149;BME280;69473;42.426;26.644;2023-04-25T08:48:32;98149.28;;;18.83;45.99
80149;BME280;69473;42.426;26.644;2023-04-25T08:51:02;98149.13;;;19.38;45.41
80149;BME280;69473;42.426;26.644;2023-04-25T08:53:31;98145.13;;;18.96;46.58
80149;BME280;69473;42.426;26.644;2023-04-25T08:55:58;98137.53;;;19.25;46.56
80149;BME280;69473;42.426;26.644;2023-04-25T08:58:24;98138.19;;;18.95;46.04
80149;BME280;69473;42.426;26.644;2023-04-25T09:00:51;98147.28;;;18.88;45.56
80149;BME280;69473;42.426;26.644;2023-04-25T09:03:17;98155.91;;;19.25;45.51
80149;BME280;69473;42.426;26.644;2023-04-25T09:05:43;98156.84;;;19.41;44.39
80149;BME280;69473;42.426;26.644;2023-04-25T09:08:09;98154.63;;;18.99;46.03
80149;BME280;69473;42.426;26.644;2023-04-25T09:10:36;98148.78;;;18.57;47.07
80149;BME280;69473;42.426;26.644;2023-04-25T09:13:10;98146.91;;;18.59;48.71
80149;BME280;69473;42.426;26.644;2023-04-25T09:15:48;98143.91;;;18.67;47.63
80149;BME280;69473;42.426;26.644;2023-04-25T09:18:24;98146.03;;;19.12;45.83
80149;BME280;69473;42.426;26.644;2023-04-25T09:20:54;98139.09;;;18.77;46.93
80149;BME280;69473;42.426;26.644;2023-04-25T09:23:21;98125.13;;;18.93;47.44
80149;BME280;69473;42.426;26.644;2023-04-25T09:25:48;98127.66;;;19.30;48.02
80149;BME280;69473;42.426;26.644;2023-04-25T09:28:14;98134.69;;;19.63;45.63
80149;BME280;69473;42.426;26.644;2023-04-25T09:30:41;98126.19;;;19.57;46.27
80149;BME280;69473;42.426;26.644;2023-04-25T09:33:10;98124.88;;;19.15;46.45
80149;BME280;69473;42.426;26.644;2023-04-25T09:35:37;98128.69;;;19.43;46.62
80149;BME280;69473;42.426;26.644;2023-04-25T09:38:11;98121.69;;;20.08;45.99
80149;BME280;69473;42.426;26.644;2023-04-25T09:40:46;98116.34;;;19.45;45.46
80149;BME280;69473;42.426;26.644;2023-04-25T09:43:22;98097.25;;;19.75;44.97
80149;BME280;69473;42.426;26.644;2023-04-25T09:45:49;98096.59;;;19.87;45.19
80149;BME280;69473;42.426;26.644;2023-04-25T09:48:21;98096.91;;;19.81;44.87
80149;BME280;69473;42.426;26.644;2023-04-25T09:51:06;98096.91;;;19.97;45.13
80149;BME280;69473;42.426;26.644;2023-04-25T09:53:43;98086.44;;;20.13;45.22
80149;BME280;69473;42.426;26.644;2023-04-25T09:56:10;98091.00;;;20.09;44.42
80149;BME280;69473;42.426;26.644;2023-04-25T09:58:38;98086.03;;;20.50;43.71
80149;BME280;69473;42.426;26.644;2023-04-25T10:01:06;98085.22;;;20.02;45.74
80149;BME280;69473;42.426;26.644;2023-04-25T10:03:34;98080.28;;;19.65;45.23
80149;BME280;69473;42.426;26.644;2023-04-25T10:06:02;98076.81;;;20.12;44.53
80149;BME280;69473;42.426;26.644;2023-04-25T10:08:32;98061.75;;;20.45;43.42
80149;BME280;69473;42.426;26.644;2023-04-25T10:11:03;98067.94;;;19.67;45.82
80149;BME280;69473;42.426;26.644;2023-04-25T10:13:30;98056.25;;;19.06;47.57
80149;BME280;69473;42.426;26.644;2023-04-25T10:16:02;98067.41;;;19.09;47.89
80149;BME280;69473;42.426;26.644;2023-04-25T10:18:29;98061.22;;;19.28;48.62
80149;BME280;69473;42.426;26.644;2023-04-25T10:21:01;98054.00;;;19.96;45.80
80149;BME280;69473;42.426;26.644;2023-04-25T10:23:29;98050.25;;;20.92;44.59
80149;BME280;69473;42.426;26.644;2023-04-25T10:25:57;98052.94;;;20.76;44.35
80149;BME280;69473;42.426;26.644;2023-04-25T10:28:22;98054.81;;;20.44;44.52
80149;BME280;69473;42.426;26.644;2023-04-25T10:33:37;98046.19;;;20.87;43.25
80149;BME280;69473;42.426;26.644;2023-04-25T10:38:36;98036.53;;;21.02;43.87
80149;BME280;69473;42.426;26.644;2023-04-25T10:41:07;98047.97;;;20.72;43.95
80149;BME280;69473;42.426;26.644;2023-04-25T10:43:47;98038.22;;;20.88;43.87
80149;BME280;69473;42.426;26.644;2023-04-25T10:46:14;98038.88;;;20.32;42.24
80149;BME280;69473;42.426;26.644;2023-04-25T10:48:46;98034.94;;;20.99;42.16
80149;BME280;69473;42.426;26.644;2023-04-25T10:51:24;98032.41;;;20.37;43.01
80149;BME280;69473;42.426;26.644;2023-04-25T10:56:24;98048.03;;;21.29;42.45
80149;BME280;69473;42.426;26.644;2023-04-25T10:58:50;98030.47;;;20.71;42.19
80149;BME280;69473;42.426;26.644;2023-04-25T11:01:21;98026.38;;;20.81;42.51
80149;BME280;69473;42.426;26.644;2023-04-25T11:03:47;98028.50;;;20.74;42.92
80149;BME280;69473;42.426;26.644;2023-04-25T11:08:49;98028.81;;;20.98;40.89
80149;BME280;69473;42.426;26.644;2023-04-25T11:11:17;98023.91;;;20.92;41.47
80149;BME280;69473;42.426;26.644;2023-04-25T11:13:43;98026.38;;;21.10;41.51
80149;BME280;69473;42.426;26.644;2023-04-25T11:16:08;98021.28;;;20.78;41.18
80149;BME280;69473;42.426;26.644;2023-04-25T11:18:34;98015.84;;;20.95;41.74
80149;BME280;69473;42.426;26.644;2023-04-25T11:21:00;98023.38;;;21.59;41.86
80149;BME280;69473;42.426;26.644;2023-04-25T11:23:30;98028.25;;;21.65;41.19
80149;BME280;69473;42.426;26.644;2023-04-25T11:25:56;98018.63;;;21.78;40.56
80149;BME280;69473;42.426;26.644;2023-04-25T11:28:22;98019.91;;;22.27;39.14
80149;BME280;69473;42.426;26.644;2023-04-25T11:30:49;98009.22;;;22.55;41.31
80149;BME280;69473;42.426;26.644;2023-04-25T11:33:18;98007.38;;;21.05;41.52
80149;BME280;69473;42.426;26.644;2023-04-25T11:35:43;98001.94;;;21.08;40.99
80149;BME280;69473;42.426;26.644;2023-04-25T11:38:09;97999.69;;;21.44;41.00
80149;BME280;69473;42.426;26.644;2023-04-25T11:40:36;97990.25;;;21.26;40.59
80149;BME280;69473;42.426;26.644;2023-04-25T11:43:01;97990.63;;;20.63;41.93
80149;BME280;69473;42.426;26.644;2023-04-25T11:45:28;97979.53;;;21.01;41.10
80149;BME280;69473;42.426;26.644;2023-04-25T11:47:55;97982.56;;;21.37;40.77
80149;BME280;69473;42.426;26.644;2023-04-25T11:50:20;97963.38;;;21.07;41.14
80149;BME280;69473;42.426;26.644;2023-04-25T11:52:47;97969.84;;;21.71;41.48
80149;BME280;69473;42.426;26.644;2023-04-25T11:55:18;97959.44;;;21.97;40.48
80149;BME280;69473;42.426;26.644;2023-04-25T11:57:47;97948.97;;;21.68;39.57
80149;BME280;69473;42.426;26.644;2023-04-25T12:00:21;97950.75;;;21.40;40.93
80149;BME280;69473;42.426;26.644;2023-04-25T12:02:51;97947.63;;;22.02;40.51
80149;BME280;69473;42.426;26.644;2023-04-25T12:05:17;97932.66;;;22.03;39.65
80149;BME280;69473;42.426;26.644;2023-04-25T12:07:42;97933.44;;;21.78;38.21
80149;BME280;69473;42.426;26.644;2023-04-25T12:10:11;97922.78;;;22.19;39.22
80149;BME280;69473;42.426;26.644;2023-04-25T12:12:38;97928.16;;;21.36;40.37
80149;BME280;69473;42.426;26.644;2023-04-25T12:15:24;97921.81;;;21.80;38.79
80149;BME280;69473;42.426;26.644;2023-04-25T12:17:52;97901.41;;;21.42;38.58
80149;BME280;69473;42.426;26.644;2023-04-25T12:20:21;97919.13;;;21.26;40.54
80149;BME280;69473;42.426;26.644;2023-04-25T12:22:49;97914.81;;;20.96;38.57
80149;BME280;69473;42.426;26.644;2023-04-25T12:25:38;97897.41;;;22.04;39.85
80149;BME280;69473;42.426;26.644;2023-04-25T12:28:13;97894.75;;;22.69;37.88
80149;BME280;69473;42.426;26.644;2023-04-25T12:30:55;97906.00;;;21.80;40.44
80149;BME280;69473;42.426;26.644;2023-04-25T12:33:25;97906.69;;;21.97;43.35
80149;BME280;69473;42.426;26.644;2023-04-25T12:35:55;97896.19;;;21.55;43.76
80149;BME280;69473;42.426;26.644;2023-04-25T12:38:26;97902.94;;;21.18;45.34
80149;BME280;69473;42.426;26.644;2023-04-25T12:40:52;97913.28;;;21.21;45.61
80149;BME280;69473;42.426;26.644;2023-04-25T12:43:18;97908.59;;;21.12;44.42
80149;BME280;69473;42.426;26.644;2023-04-25T12:45:44;97904.03;;;21.57;43.86
80149;BME280;69473;42.426;26.644;2023-04-25T12:48:10;97908.81;;;21.77;42.89
80149;BME280;69473;42.426;26.644;2023-04-25T12:50:36;97908.69;;;21.25;42.87
80149;BME280;69473;42.426;26.644;2023-04-25T12:53:01;97897.56;;;20.78;42.64
80149;BME280;69473;42.426;26.644;2023-04-25T12:55:27;97916.19;;;20.75;43.77
80149;BME280;69473;42.426;26.644;2023-04-25T12:57:52;97918.88;;;20.73;43.09
80149;BME280;69473;42.426;26.644;2023-04-25T13:00:18;97913.28;;;20.35;43.03